createdAt,value
2019-03-06T00:01:44.666Z,71.34
2019-03-06T00:04:14.182Z,71.51
2019-03-06T00:06:43.671Z,71.38
2019-03-06T00:09:13.121Z,71.46
2019-03-06T00:11:42.599Z,71.29
2019-03-06T00:14:12.106Z,71.69
2019-03-06T00:16:41.619Z,71.58
2019-03-06T00:19:11.468Z,71.61
2019-03-06T00:21:40.974Z,71.45
2019-03-06T00:24:10.479Z,71.24
2019-03-06T00:26:40.028Z,71.21
2019-03-06T00:29:09.545Z,71.18
2019-03-06T00:31:39.162Z,71.35
2019-03-06T00:34:08.680Z,72.04
2019-03-06T00:36:38.292Z,72.39
2019-03-06T00:39:09.009Z,72.31
2019-03-06T00:41:43.910Z,72.06
2019-03-06T00:44:13.414Z,72.12
2019-03-06T00:46:42.889Z,72.36
2019-03-06T00:49:12.412Z,71.93
2019-03-06T00:51:41.862Z,71.67
2019-03-06T00:54:11.425Z,71.30
2019-03-06T00:56:40.924Z,70.71
2019-03-06T00:59:10.451Z,70.43
2019-03-06T01:01:39.965Z,70.08
2019-03-06T01:04:09.469Z,69.53
2019-03-06T01:06:38.990Z,69.95
2019-03-06T01:09:09.605Z,69.72
2019-03-06T01:11:39.151Z,70.10
2019-03-06T01:14:08.732Z,70.62
2019-03-06T01:16:38.226Z,70.94
2019-03-06T01:19:07.811Z,71.48
2019-03-06T01:21:37.330Z,71.93
2019-03-06T01:24:06.804Z,71.70
2019-03-06T01:26:36.306Z,72.15
2019-03-06T01:29:06.075Z,72.33
2019-03-06T01:31:35.753Z,72.29
2019-03-06T01:34:21.484Z,72.20
2019-03-06T01:37:22.249Z,72.24
2019-03-06T01:40:13.469Z,72.51
2019-03-06T01:42:56.343Z,72.63
2019-03-06T01:45:25.788Z,72.70
2019-03-06T01:47:55.256Z,73.02
2019-03-06T01:50:24.750Z,73.13
2019-03-06T01:52:54.223Z,73.55
2019-03-06T01:55:23.698Z,73.73
2019-03-06T01:57:53.167Z,73.99
2019-03-06T02:00:22.657Z,74.13
2019-03-06T02:02:52.461Z,73.53
2019-03-06T02:05:21.965Z,73.20
2019-03-06T02:07:51.424Z,73.20
2019-03-06T02:10:21.181Z,73.23
2019-03-06T02:12:50.667Z,72.89
2019-03-06T02:15:20.540Z,73.14
2019-03-06T02:17:50.039Z,73.46
2019-03-06T02:20:19.638Z,73.98
2019-03-06T02:22:49.122Z,74.51
2019-03-06T02:25:18.691Z,75.40
2019-03-06T02:27:48.187Z,75.75
2019-03-06T02:30:19.708Z,76.03
2019-03-06T02:32:49.185Z,76.23
2019-03-06T02:35:18.643Z,76.55
2019-03-06T02:37:48.120Z,76.21
2019-03-06T02:40:19.348Z,76.12
2019-03-06T02:42:48.806Z,76.10
2019-03-06T02:45:18.366Z,76.02
2019-03-06T02:47:47.865Z,75.66
2019-03-06T02:50:17.334Z,75.30
2019-03-06T02:52:46.833Z,75.63
2019-03-06T02:55:16.856Z,75.55
2019-03-06T02:57:55.567Z,76.04
2019-03-06T03:00:42.837Z,76.02
2019-03-06T03:03:30.832Z,76.13
2019-03-06T03:06:07.121Z,75.78
2019-03-06T03:08:37.192Z,75.58
2019-03-06T03:11:06.761Z,75.14
2019-03-06T03:13:36.240Z,75.29
2019-03-06T03:16:05.699Z,75.55
2019-03-06T03:18:35.183Z,76.08
2019-03-06T03:21:04.692Z,76.19
2019-03-06T03:23:34.144Z,76.21
2019-03-06T03:26:03.679Z,76.52
2019-03-06T03:28:33.124Z,76.47
2019-03-06T03:31:02.637Z,76.43
2019-03-06T03:33:32.087Z,76.25
2019-03-06T03:36:01.612Z,76.38
2019-03-06T03:38:31.097Z,76.74
2019-03-06T03:41:00.624Z,76.79
2019-03-06T03:43:30.082Z,77.22
2019-03-06T03:45:59.577Z,77.51
2019-03-06T03:48:29.082Z,77.58
2019-03-06T03:50:58.580Z,77.51
2019-03-06T03:53:28.071Z,78.02
2019-03-06T03:55:57.596Z,78.31
2019-03-06T03:58:27.071Z,78.61
2019-03-06T04:00:56.692Z,78.94
2019-03-06T04:03:26.315Z,78.74
2019-03-06T04:05:55.805Z,78.83
2019-03-06T04:08:25.285Z,79.01
2019-03-06T04:10:54.823Z,79.34
2019-03-06T04:13:24.343Z,79.37
2019-03-06T04:15:53.844Z,79.34
2019-03-06T04:18:23.372Z,79.27
2019-03-06T04:20:52.859Z,79.43
2019-03-06T04:23:22.463Z,79.27
2019-03-06T04:25:51.973Z,79.27
2019-03-06T04:28:21.476Z,79.25
2019-03-06T04:30:53.302Z,79.03
2019-03-06T04:33:22.833Z,79.07
2019-03-06T04:35:52.430Z,79.04
2019-03-06T04:38:21.907Z,78.86
2019-03-06T04:40:51.539Z,78.96
2019-03-06T04:43:21.044Z,78.79
2019-03-06T04:45:50.515Z,78.35
2019-03-06T04:48:20.022Z,76.58
2019-03-06T04:50:49.532Z,75.68
2019-03-06T04:53:19.103Z,75.58
2019-03-06T04:55:48.656Z,75.08
2019-03-06T04:58:18.158Z,74.73
2019-03-06T05:00:47.769Z,74.74
2019-03-06T05:03:17.308Z,74.73
2019-03-06T05:05:46.794Z,74.73
2019-03-06T05:08:16.290Z,74.70
2019-03-06T05:10:46.143Z,74.74
2019-03-06T05:13:15.995Z,75.39
2019-03-06T05:15:45.519Z,76.37
2019-03-06T05:18:46.489Z,76.67
2019-03-06T05:21:16.077Z,76.54
2019-03-06T05:23:45.567Z,76.66
2019-03-06T05:26:15.062Z,77.35
2019-03-06T05:28:44.565Z,77.62
2019-03-06T05:31:14.070Z,77.49
2019-03-06T05:33:43.585Z,77.30
2019-03-06T05:37:12.306Z,76.99
2019-03-06T05:39:41.835Z,76.47
2019-03-06T05:42:11.496Z,76.22
2019-03-06T05:44:41.382Z,75.96
2019-03-06T05:47:10.939Z,75.41
2019-03-06T05:49:40.444Z,75.31
2019-03-06T05:52:09.954Z,74.98
2019-03-06T05:54:39.613Z,75.81
2019-03-06T05:57:09.133Z,75.48
2019-03-06T05:59:38.704Z,74.42
2019-03-06T06:02:10.070Z,73.54
2019-03-06T06:04:39.603Z,73.12
2019-03-06T06:07:09.346Z,72.80
2019-03-06T06:09:38.944Z,72.57
2019-03-06T06:12:08.559Z,72.44
2019-03-06T06:14:38.118Z,72.25
2019-03-06T06:17:07.804Z,72.39
2019-03-06T06:19:37.501Z,72.47
2019-03-06T06:22:15.389Z,72.38
2019-03-06T06:24:46.843Z,72.68
2019-03-06T06:27:16.405Z,72.87
2019-03-06T06:29:46.129Z,72.84
2019-03-06T06:32:15.750Z,72.70
2019-03-06T06:34:45.416Z,73.05
2019-03-06T06:37:15.018Z,72.93
2019-03-06T06:39:44.659Z,72.83
2019-03-06T06:42:14.361Z,72.41
2019-03-06T06:44:43.863Z,72.02
2019-03-06T06:47:13.403Z,72.03
2019-03-06T06:49:42.917Z,71.45
2019-03-06T06:52:40.374Z,71.28
2019-03-06T06:55:49.829Z,70.75
2019-03-06T06:58:53.588Z,70.35
2019-03-06T07:02:09.062Z,69.81
2019-03-06T07:05:16.753Z,69.01
2019-03-06T07:08:03.972Z,68.13
2019-03-06T07:10:39.515Z,67.60
2019-03-06T07:13:17.395Z,67.36
2019-03-06T07:16:08.655Z,67.16
2019-03-06T07:19:15.282Z,66.67
2019-03-06T07:22:06.528Z,66.57
2019-03-06T07:25:01.245Z,66.53
2019-03-06T07:27:49.668Z,66.49
2019-03-06T07:30:34.406Z,65.48
2019-03-06T07:33:29.447Z,65.66
2019-03-06T07:36:24.267Z,65.83
2019-03-06T07:39:00.633Z,66.22
2019-03-06T07:41:50.191Z,66.46
2019-03-06T07:44:37.437Z,65.79
2019-03-06T07:47:25.989Z,65.75
2019-03-06T07:50:32.572Z,65.52
2019-03-06T07:54:12.548Z,66.02
2019-03-06T07:56:59.388Z,65.27
2019-03-06T07:59:29.000Z,64.16
2019-03-06T08:02:01.801Z,63.80
2019-03-06T08:04:31.459Z,63.19
2019-03-06T08:07:10.944Z,62.42
2019-03-06T08:09:40.450Z,62.67
2019-03-06T08:12:28.903Z,62.89
2019-03-06T08:15:21.151Z,63.39
2019-03-06T08:18:08.467Z,62.97
2019-03-06T08:20:50.531Z,63.33
2019-03-06T08:23:37.778Z,63.89
2019-03-06T08:26:07.337Z,65.17
2019-03-06T08:28:36.860Z,65.65
2019-03-06T08:31:24.182Z,65.28
2019-03-06T08:34:01.666Z,65.53
2019-03-06T08:36:31.212Z,64.95
2019-03-06T08:39:00.740Z,65.10
2019-03-06T08:41:30.313Z,64.99
2019-03-06T08:43:59.882Z,64.84
2019-03-06T08:46:48.341Z,64.83
2019-03-06T08:49:29.291Z,64.07
2019-03-06T08:52:16.465Z,63.07
2019-03-06T08:55:04.876Z,62.78
2019-03-06T08:57:52.452Z,62.15
2019-03-06T09:00:39.948Z,61.35
2019-03-06T09:03:46.658Z,61.17
2019-03-06T09:06:25.544Z,61.22
2019-03-06T09:09:14.030Z,61.48
2019-03-06T09:11:56.140Z,61.43
2019-03-06T09:14:42.407Z,60.76
2019-03-06T09:17:23.739Z,61.29
2019-03-06T09:20:04.674Z,60.73
2019-03-06T09:22:53.150Z,60.06
2019-03-06T09:25:32.768Z,60.35
2019-03-06T09:28:33.219Z,61.14
2019-03-06T09:31:17.167Z,61.11
2019-03-06T09:33:59.529Z,61.27
2019-03-06T09:36:45.081Z,61.68
2019-03-06T09:39:36.840Z,61.42
2019-03-06T09:42:19.029Z,61.17
2019-03-06T09:45:13.364Z,60.97
2019-03-06T09:48:07.279Z,61.16
2019-03-06T09:50:52.498Z,61.07
2019-03-06T09:53:35.117Z,60.81
2019-03-06T09:56:29.588Z,60.46
2019-03-06T09:59:04.852Z,60.25
2019-03-06T10:01:53.312Z,59.89
2019-03-06T10:04:32.417Z,60.34
2019-03-06T10:07:18.849Z,59.43
2019-03-06T10:10:13.122Z,59.06
2019-03-06T10:13:07.704Z,58.93
2019-03-06T10:15:44.018Z,59.17
2019-03-06T10:18:18.608Z,57.78
2019-03-06T10:20:48.089Z,59.31
2019-03-06T10:23:17.621Z,58.63
2019-03-06T10:25:47.153Z,57.15
2019-03-06T10:28:16.660Z,53.75
2019-03-06T10:30:46.172Z,53.55
2019-03-06T10:33:15.711Z,51.88
2019-03-06T10:35:45.434Z,52.01
2019-03-06T10:38:16.812Z,51.25
2019-03-06T10:40:46.211Z,50.76
2019-03-06T10:43:15.839Z,49.17
2019-03-06T10:45:45.342Z,49.22
2019-03-06T10:48:14.898Z,49.00
2019-03-06T10:50:44.413Z,48.22
2019-03-06T10:53:13.920Z,47.45
2019-03-06T10:55:43.470Z,47.27
2019-03-06T10:58:13.019Z,46.31
2019-03-06T11:00:52.354Z,46.51
2019-03-06T11:03:24.195Z,46.09
2019-03-06T11:05:53.850Z,45.60
2019-03-06T11:08:25.040Z,44.30
2019-03-06T11:10:54.947Z,42.54
2019-03-06T11:13:24.715Z,42.44
2019-03-06T11:15:55.900Z,41.28
2019-03-06T11:18:25.667Z,39.94
2019-03-06T11:20:55.252Z,39.67
2019-03-06T11:23:25.044Z,38.91
2019-03-06T11:25:54.540Z,39.20
2019-03-06T11:28:24.155Z,38.06
2019-03-06T11:30:55.687Z,36.73
2019-03-06T11:33:25.737Z,35.86
2019-03-06T11:35:56.678Z,35.49
2019-03-06T11:38:27.268Z,36.27
2019-03-06T11:40:57.171Z,36.36
2019-03-06T11:43:26.869Z,35.98
2019-03-06T11:45:56.541Z,35.36
2019-03-06T11:48:26.326Z,34.87
2019-03-06T11:50:55.853Z,34.35
2019-03-06T11:53:25.567Z,32.91
2019-03-06T11:55:55.196Z,33.15
2019-03-06T11:58:24.856Z,33.36
2019-03-06T12:00:54.767Z,33.41
2019-03-06T12:03:24.337Z,33.78
2019-03-06T12:05:54.254Z,34.30
2019-03-06T12:08:23.800Z,35.49
2019-03-06T12:10:53.673Z,36.72
2019-03-06T12:13:23.318Z,37.48
2019-03-06T12:15:53.279Z,37.43
2019-03-06T12:18:24.326Z,37.39
2019-03-06T12:20:54.514Z,37.62
2019-03-06T12:23:24.155Z,36.85
2019-03-06T12:25:53.688Z,36.99
2019-03-06T12:28:23.338Z,37.21
2019-03-06T12:30:52.830Z,36.05
2019-03-06T12:33:25.393Z,36.74
2019-03-06T12:35:55.130Z,36.96
2019-03-06T12:38:24.797Z,36.96
2019-03-06T12:40:54.274Z,36.96
2019-03-06T12:43:23.756Z,36.98
2019-03-06T12:46:27.581Z,36.71
2019-03-06T12:49:07.750Z,36.94
2019-03-06T12:51:39.148Z,37.21
2019-03-06T12:54:09.513Z,36.37
2019-03-06T12:56:39.154Z,37.01
2019-03-06T12:59:08.887Z,35.81
2019-03-06T13:01:39.271Z,35.97
2019-03-06T13:04:08.931Z,35.74
2019-03-06T13:06:38.473Z,34.44
2019-03-06T13:09:19.934Z,34.53
2019-03-06T13:11:49.423Z,34.77
2019-03-06T13:14:19.090Z,34.38
2019-03-06T13:16:49.026Z,34.59
2019-03-06T13:19:18.558Z,34.22
2019-03-06T13:21:48.134Z,33.76
2019-03-06T13:24:18.206Z,33.41
2019-03-06T13:26:47.741Z,33.17
2019-03-06T13:29:17.549Z,32.55
2019-03-06T13:31:47.075Z,32.75
2019-03-06T13:34:35.501Z,32.12
2019-03-06T13:37:05.079Z,31.35
2019-03-06T13:39:34.870Z,31.61
2019-03-06T13:42:04.578Z,32.62
2019-03-06T13:44:34.066Z,32.47
2019-03-06T13:47:03.617Z,31.60
2019-03-06T13:49:33.205Z,32.14
2019-03-06T13:52:02.728Z,32.33
2019-03-06T13:54:32.365Z,32.11
2019-03-06T13:57:01.919Z,31.80
2019-03-06T13:59:31.396Z,32.02
2019-03-06T14:02:00.948Z,31.53
2019-03-06T14:04:31.006Z,32.12
2019-03-06T14:07:03.432Z,31.87
2019-03-06T14:09:32.959Z,32.16
2019-03-06T14:12:04.024Z,32.38
2019-03-06T14:14:33.591Z,32.39
2019-03-06T14:17:03.511Z,32.21
2019-03-06T14:19:33.022Z,32.19
2019-03-06T14:22:02.802Z,32.00
2019-03-06T14:24:32.321Z,32.17
2019-03-06T14:27:01.837Z,31.51
2019-03-06T14:29:31.402Z,31.78
2019-03-06T14:32:00.911Z,32.07
2019-03-06T14:34:30.382Z,31.19
2019-03-06T14:37:00.120Z,31.58
2019-03-06T14:39:31.238Z,31.72
2019-03-06T14:42:01.510Z,30.77
2019-03-06T14:44:31.016Z,30.77
2019-03-06T14:47:00.555Z,30.95
2019-03-06T14:49:30.492Z,31.06
2019-03-06T14:52:07.085Z,31.19
2019-03-06T14:54:31.955Z,30.90
2019-03-06T14:57:01.491Z,31.27
2019-03-06T14:59:31.039Z,30.61
2019-03-06T15:02:00.555Z,30.87
2019-03-06T15:04:30.288Z,30.86
2019-03-06T15:07:00.091Z,31.16
2019-03-06T15:09:29.820Z,30.96
2019-03-06T15:11:59.618Z,31.02
2019-03-06T15:14:35.771Z,31.08
2019-03-06T15:17:00.598Z,31.18
2019-03-06T15:19:30.107Z,31.00
2019-03-06T15:21:59.575Z,30.88
2019-03-06T15:24:29.073Z,30.08
2019-03-06T15:26:58.574Z,30.56
2019-03-06T15:29:28.067Z,29.98
2019-03-06T15:31:57.844Z,30.10
2019-03-06T15:34:27.386Z,29.75
2019-03-06T15:36:56.868Z,30.04
2019-03-06T15:39:42.851Z,29.63
2019-03-06T15:42:08.059Z,29.84
2019-03-06T15:44:37.574Z,30.01
2019-03-06T15:47:07.379Z,30.01
2019-03-06T15:49:36.962Z,30.02
2019-03-06T15:52:11.054Z,29.92
2019-03-06T15:54:40.579Z,29.69
2019-03-06T15:57:10.323Z,29.42
2019-03-06T15:59:40.017Z,29.66
2019-03-06T16:02:09.758Z,29.69
2019-03-06T16:04:39.264Z,29.62
2019-03-06T16:07:08.786Z,29.33
2019-03-06T16:09:38.724Z,29.46
2019-03-06T16:12:08.350Z,29.61
2019-03-06T16:14:37.843Z,29.55
2019-03-06T16:17:07.541Z,29.84
2019-03-06T16:19:37.054Z,30.09
2019-03-06T16:22:06.858Z,29.97
2019-03-06T16:24:37.666Z,29.98
2019-03-06T16:27:07.332Z,29.68
2019-03-06T16:29:36.852Z,29.78
2019-03-06T16:32:06.569Z,29.74
2019-03-06T16:34:36.118Z,29.67
2019-03-06T16:37:06.203Z,29.58
2019-03-06T16:39:35.706Z,29.54
2019-03-06T16:42:05.423Z,29.78
2019-03-06T16:44:35.014Z,29.90
2019-03-06T16:47:06.960Z,29.80
2019-03-06T16:49:36.091Z,29.78
2019-03-06T16:52:05.693Z,29.84
2019-03-06T16:54:35.224Z,29.73
2019-03-06T16:57:04.727Z,29.81
2019-03-06T16:59:34.254Z,30.76
2019-03-06T17:02:03.940Z,31.86
2019-03-06T17:04:33.732Z,33.53
2019-03-06T17:07:03.225Z,33.94
2019-03-06T17:09:32.954Z,34.36
2019-03-06T17:12:02.642Z,34.52
2019-03-06T17:14:32.159Z,34.76
2019-03-06T17:17:01.711Z,34.88
2019-03-06T17:19:31.275Z,35.12
2019-03-06T17:22:00.783Z,35.10
2019-03-06T17:24:30.347Z,35.26
2019-03-06T17:26:59.989Z,35.44
2019-03-06T17:29:29.489Z,35.67
2019-03-06T17:31:59.196Z,35.90
2019-03-06T17:34:30.750Z,35.79
2019-03-06T17:37:01.339Z,36.19
2019-03-06T17:39:30.956Z,36.44
2019-03-06T17:42:00.448Z,36.41
2019-03-06T17:44:30.010Z,36.42
2019-03-06T17:46:59.670Z,36.59
2019-03-06T17:49:29.248Z,36.97
2019-03-06T17:51:58.810Z,37.16
2019-03-06T17:54:28.471Z,37.50
2019-03-06T17:56:58.094Z,37.80
2019-03-06T17:59:27.880Z,37.98
2019-03-06T18:01:57.419Z,38.34
2019-03-06T18:04:28.164Z,38.10
2019-03-06T18:06:57.651Z,38.02
2019-03-06T18:09:27.682Z,37.76
2019-03-06T18:11:57.213Z,37.04
2019-03-06T18:14:26.860Z,37.26
2019-03-06T18:16:56.385Z,37.61
2019-03-06T18:19:25.884Z,37.77
2019-03-06T18:21:55.353Z,37.79
2019-03-06T18:24:24.855Z,37.77
2019-03-06T18:26:54.736Z,38.04
2019-03-06T18:29:24.300Z,38.17
2019-03-06T18:31:53.832Z,38.19
2019-03-06T18:34:23.352Z,38.45
2019-03-06T18:36:52.819Z,38.77
2019-03-06T18:39:22.514Z,39.01
2019-03-06T18:41:52.799Z,39.29
2019-03-06T18:44:22.365Z,39.52
2019-03-06T18:46:52.014Z,39.90
2019-03-06T18:49:21.544Z,40.34
2019-03-06T18:51:51.010Z,40.77
2019-03-06T18:54:20.531Z,41.11
2019-03-06T18:56:50.342Z,41.20
2019-03-06T18:59:19.835Z,41.38
2019-03-06T19:01:49.415Z,41.65
2019-03-06T19:04:18.987Z,41.61
2019-03-06T19:06:48.511Z,41.85
2019-03-06T19:09:19.724Z,41.77
2019-03-06T19:11:49.552Z,42.18
2019-03-06T19:14:19.052Z,42.35
2019-03-06T19:16:48.534Z,42.79
2019-03-06T19:19:18.046Z,43.10
2019-03-06T19:21:47.642Z,43.07
2019-03-06T19:24:17.203Z,43.35
2019-03-06T19:26:46.698Z,43.46
2019-03-06T19:29:16.350Z,43.17
2019-03-06T19:31:45.825Z,43.31
2019-03-06T19:34:15.400Z,43.15
2019-03-06T19:36:44.926Z,42.63
2019-03-06T19:39:17.523Z,43.95
2019-03-06T19:41:47.068Z,43.94
2019-03-06T19:44:16.614Z,44.04
2019-03-06T19:46:46.212Z,44.14
2019-03-06T19:49:15.875Z,44.54
2019-03-06T19:51:51.441Z,44.59
2019-03-06T19:54:16.642Z,44.41
2019-03-06T19:56:46.186Z,44.28
2019-03-06T19:59:15.667Z,44.08
2019-03-06T20:01:45.232Z,44.00
2019-03-06T20:04:14.740Z,43.37
2019-03-06T20:06:45.633Z,43.48
2019-03-06T20:09:26.118Z,43.89
2019-03-06T20:11:55.623Z,44.53
2019-03-06T20:14:25.177Z,44.62
2019-03-06T20:16:54.691Z,45.62
2019-03-06T20:19:24.633Z,45.89
2019-03-06T20:21:54.365Z,46.14
2019-03-06T20:24:23.919Z,46.18
2019-03-06T20:26:53.734Z,46.05
2019-03-06T20:29:23.238Z,45.98
2019-03-06T20:31:52.818Z,46.54
2019-03-06T20:34:22.325Z,47.40
2019-03-06T20:36:52.001Z,48.01
2019-03-06T20:39:21.507Z,47.79
2019-03-06T20:41:51.085Z,47.57
2019-03-06T20:44:21.051Z,47.63
2019-03-06T20:46:50.532Z,47.86
2019-03-06T20:49:20.069Z,48.60
2019-03-06T20:51:49.713Z,47.87
2019-03-06T20:54:19.306Z,48.29
2019-03-06T20:56:48.871Z,48.16
2019-03-06T20:59:18.361Z,47.59
2019-03-06T21:01:47.874Z,47.38
2019-03-06T21:04:17.361Z,47.11
2019-03-06T21:06:47.175Z,46.56
2019-03-06T21:09:17.162Z,46.89
2019-03-06T21:11:46.990Z,47.26
2019-03-06T21:14:16.532Z,47.00
2019-03-06T21:16:46.019Z,47.02
2019-03-06T21:19:15.546Z,46.76
2019-03-06T21:21:45.054Z,46.77
2019-03-06T21:24:14.570Z,46.84
2019-03-06T21:26:44.292Z,46.75
2019-03-06T21:29:13.782Z,46.90
2019-03-06T21:31:43.288Z,46.75
2019-03-06T21:34:12.744Z,46.83
2019-03-06T21:36:42.250Z,46.77
2019-03-06T21:39:22.799Z,46.44
2019-03-06T21:41:52.316Z,46.24
2019-03-06T21:44:21.821Z,45.96
2019-03-06T21:46:51.341Z,45.80
2019-03-06T21:49:20.886Z,45.87
2019-03-06T21:51:50.523Z,46.23
2019-03-06T21:54:20.367Z,45.85
2019-03-06T21:56:49.870Z,45.91
2019-03-06T21:59:19.375Z,47.18
2019-03-06T22:01:48.922Z,48.41
2019-03-06T22:04:18.433Z,48.51
2019-03-06T22:06:47.895Z,48.55
2019-03-06T22:09:17.592Z,50.04
2019-03-06T22:11:47.449Z,49.66
2019-03-06T22:14:16.909Z,50.24
2019-03-06T22:16:46.400Z,50.11
2019-03-06T22:19:15.891Z,50.54
2019-03-06T22:21:45.427Z,50.17
2019-03-06T22:24:14.916Z,50.63
2019-03-06T22:26:44.432Z,50.95
2019-03-06T22:29:13.899Z,51.08
2019-03-06T22:31:43.408Z,51.51
2019-03-06T22:34:12.931Z,51.22
2019-03-06T22:36:42.405Z,51.13
2019-03-06T22:39:12.084Z,51.29
2019-03-06T22:41:41.580Z,51.92
2019-03-06T22:44:11.075Z,52.33
2019-03-06T22:46:40.596Z,52.49
2019-03-06T22:49:10.256Z,52.75
2019-03-06T22:51:39.840Z,53.96
2019-03-06T22:54:09.330Z,52.34
2019-03-06T22:56:38.854Z,52.94
2019-03-06T22:59:08.339Z,52.63
2019-03-06T23:01:39.712Z,53.03
2019-03-06T23:04:09.375Z,53.28
2019-03-06T23:06:38.874Z,53.47
2019-03-06T23:09:12.250Z,53.54
2019-03-06T23:11:42.228Z,53.68
2019-03-06T23:14:11.722Z,54.01
2019-03-06T23:16:41.268Z,54.31
2019-03-06T23:19:13.835Z,54.40
2019-03-06T23:21:43.360Z,54.69
2019-03-06T23:24:12.896Z,55.01
2019-03-06T23:26:43.227Z,54.61
2019-03-06T23:29:12.884Z,54.70
2019-03-06T23:31:42.541Z,54.08
2019-03-06T23:34:12.139Z,53.75
2019-03-06T23:36:41.654Z,54.12
2019-03-06T23:39:14.379Z,53.83
2019-03-06T23:41:43.938Z,54.29
2019-03-06T23:44:15.183Z,54.64
2019-03-06T23:46:44.711Z,54.71
2019-03-06T23:49:14.176Z,54.13
2019-03-06T23:51:48.821Z,54.10
2019-03-06T23:54:19.462Z,54.49
2019-03-06T23:56:49.167Z,54.41
2019-03-06T23:59:18.640Z,54.72
